Time;durP1;ratioP1;P1;durP2;ratioP2;P2;SDS_P1;SDS_P2;PMS_P1;PMS_P2;Temp;Humidity;BMP_temperature;BMP_pressure;BME280_temperature;BME280_humidity;BME280_pressure;Samples;Min_cycle;Max_cycle;Signal;HPM_P1;HPM_P2
2022/06/16 00:01:47;;;;;;;8.13;3.65;;;;;;;;;;5085266;28;20059;-73
2022/06/16 00:04:14;;;;;;;6.65;3.42;;;;;;;;;;5097903;28;20052;-73
2022/06/16 00:06:40;;;;;;;6.03;3.35;;;;;;;;;;5086121;28;20103;-73
2022/06/16 00:09:06;;;;;;;5.60;3.25;;;;;;;;;;5093433;28;20048;-74
2022/06/16 00:11:33;;;;;;;7.40;3.63;;;;;;;;;;5099938;28;20056;-74
2022/06/16 00:13:59;;;;;;;7.63;3.30;;;;;;;;;;5088023;28;20057;-74
2022/06/16 00:16:26;;;;;;;6.22;3.50;;;;;;;;;;5093737;27;20080;-74
2022/06/16 00:18:52;;;;;;;11.13;3.78;;;;;;;;;;5093589;28;20052;-74
2022/06/16 00:21:19;;;;;;;7.07;3.35;;;;;;;;;;5093162;28;20053;-74
2022/06/16 00:23:46;;;;;;;8.10;3.88;;;;;;;;;;5075358;28;20091;-74
2022/06/16 00:26:13;;;;;;;6.68;3.35;;;;;;;;;;5090441;28;20060;-74
2022/06/16 00:28:40;;;;;;;7.80;3.60;;;;;;;;;;5100205;28;20812;-74
2022/06/16 00:31:07;;;;;;;7.93;3.90;;;;;;;;;;5094438;28;20052;-74
2022/06/16 00:33:34;;;;;;;5.70;3.25;;;;;;;;;;5100551;28;20491;-74
2022/06/16 00:36:00;;;;;;;7.57;3.85;;;;;;;;;;5069752;28;20055;-74
2022/06/16 00:38:27;;;;;;;7.55;3.80;;;;;;;;;;5088331;28;20086;-73
2022/06/16 00:40:53;;;;;;;7.75;3.97;;;;;;;;;;5088920;28;20074;-74
2022/06/16 00:43:19;;;;;;;6.82;3.60;;;;;;;;;;5093370;28;20512;-74
2022/06/16 00:45:58;;;;;;;7.10;3.65;;;;;;;;;;5083533;28;20049;-74
2022/06/16 00:48:38;;;;;;;6.35;3.58;;;;;;;;;;5089801;27;20052;-74
2022/06/16 00:51:04;;;;;;;9.00;4.05;;;;;;;;;;5094296;28;20052;-74
2022/06/16 00:53:31;;;;;;;6.72;4.15;;;;;;;;;;5095959;28;20086;-74
2022/06/16 00:55:58;;;;;;;11.98;4.68;;;;;;;;;;5094672;27;20136;-74
2022/06/16 00:58:25;;;;;;;7.60;4.03;;;;;;;;;;5093323;28;20499;-74
2022/06/16 01:00:52;;;;;;;7.90;4.13;;;;;;;;;;5096958;28;20056;-74
2022/06/16 01:06:28;;;;;;;6.50;3.88;;;;;;;;;;5060751;28;20525;-74
2022/06/16 01:09:00;;;;;;;6.47;3.83;;;;;;;;;;5061343;28;20072;-74
2022/06/16 01:14:49;;;;;;;7.72;4.00;;;;;;;;;;5103053;28;20053;-74
2022/06/16 01:17:23;;;;;;;9.00;3.83;;;;;;;;;;5090645;27;20048;-74
2022/06/16 01:19:57;;;;;;;7.72;3.88;;;;;;;;;;5083761;28;20087;-74
2022/06/16 01:22:39;;;;;;;7.90;4.45;;;;;;;;;;5096527;28;20052;-74
2022/06/16 01:25:28;;;;;;;8.80;4.00;;;;;;;;;;5088494;28;20144;-73
2022/06/16 01:28:06;;;;;;;7.47;4.25;;;;;;;;;;5092302;28;20143;-74
2022/06/16 01:30:42;;;;;;;8.32;4.15;;;;;;;;;;5094780;28;20055;-75
2022/06/16 01:33:15;;;;;;;8.30;4.25;;;;;;;;;;5098214;28;20079;-74
2022/06/16 01:35:48;;;;;;;6.50;3.83;;;;;;;;;;5096806;28;20603;-74
2022/06/16 01:38:17;;;;;;;8.70;4.22;;;;;;;;;;5079555;28;20054;-74
2022/06/16 01:40:43;;;;;;;6.53;4.35;;;;;;;;;;5084400;28;20057;-74
2022/06/16 01:43:14;;;;;;;8.02;3.75;;;;;;;;;;5073239;28;20864;-74
2022/06/16 01:45:41;;;;;;;;;;;;;;;;;;5104243;28;20523;-74
2022/06/16 01:48:10;;;;;;;8.93;4.15;;;;;;;;;;5103771;27;43458;-74
2022/06/16 01:50:41;;;;;;;7.45;3.80;;;;;;;;;;5068802;28;20097;-74
2022/06/16 01:53:11;;;;;;;8.45;3.90;;;;;;;;;;5069950;28;20071;-74
2022/06/16 01:55:40;;;;;;;7.13;4.00;;;;;;;;;;5091866;28;20060;-74
2022/06/16 01:58:10;;;;;;;5.82;3.60;;;;;;;;;;5098672;28;20259;-73
2022/06/16 02:00:36;;;;;;;7.45;4.18;;;;;;;;;;5094213;28;20053;-74
2022/06/16 02:03:08;;;;;;;7.50;4.30;;;;;;;;;;5086953;28;20118;-74
2022/06/16 02:05:50;;;;;;;7.75;4.25;;;;;;;;;;5083674;28;20053;-74
2022/06/16 02:08:19;;;;;;;9.90;4.35;;;;;;;;;;5074308;28;20048;-74
2022/06/16 02:10:54;;;;;;;5.80;3.92;;;;;;;;;;5100039;28;20052;-74
2022/06/16 02:13:28;;;;;;;9.77;3.90;;;;;;;;;;5090757;27;20048;-74
2022/06/16 02:16:01;;;;;;;7.65;4.00;;;;;;;;;;5082366;28;20182;-74
2022/06/16 02:18:29;;;;;;;9.65;4.30;;;;;;;;;;5105200;27;20051;-74
2022/06/16 02:20:55;;;;;;;8.38;4.25;;;;;;;;;;5095525;28;20087;-73
2022/06/16 02:23:24;;;;;;;8.05;4.00;;;;;;;;;;5068883;28;20056;-74
2022/06/16 02:25:53;;;;;;;6.43;4.00;;;;;;;;;;5097975;28;20135;-74
2022/06/16 02:28:20;;;;;;;10.55;4.18;;;;;;;;;;5090630;27;20131;-75
2022/06/16 02:30:52;;;;;;;8.27;4.28;;;;;;;;;;5094814;28;20052;-74
2022/06/16 02:33:33;;;;;;;7.03;4.10;;;;;;;;;;5092607;28;20053;-74
2022/06/16 02:36:09;;;;;;;5.75;3.80;;;;;;;;;;5084251;28;20053;-74
2022/06/16 02:38:42;;;;;;;7.60;4.10;;;;;;;;;;5091926;28;20052;-74
2022/06/16 02:41:24;;;;;;;8.43;3.78;;;;;;;;;;5083380;28;20044;-74
2022/06/16 02:44:00;;;;;;;7.68;4.07;;;;;;;;;;5081329;28;20049;-74
2022/06/16 02:46:33;;;;;;;9.85;4.30;;;;;;;;;;5088988;28;20056;-74
2022/06/16 02:48:59;;;;;;;6.78;4.03;;;;;;;;;;5078810;28;20588;-74
2022/06/16 02:51:34;;;;;;;7.18;3.90;;;;;;;;;;5086127;28;20059;-73
2022/06/16 02:54:11;;;;;;;8.93;4.65;;;;;;;;;;5096036;27;20531;-74
2022/06/16 02:56:48;;;;;;;7.65;4.15;;;;;;;;;;5095430;28;20060;-74
2022/06/16 02:59:17;;;;;;;9.25;4.85;;;;;;;;;;5095954;28;20503;-74
2022/06/16 03:01:43;;;;;;;7.43;4.35;;;;;;;;;;5087563;28;20052;-74
2022/06/16 03:04:14;;;;;;;8.05;4.40;;;;;;;;;;5095675;28;20147;-74
2022/06/16 03:06:41;;;;;;;9.95;4.93;;;;;;;;;;5082806;28;20052;-74
2022/06/16 03:09:08;;;;;;;7.93;4.53;;;;;;;;;;5082614;28;20491;-74
2022/06/16 03:11:35;;;;;;;7.82;4.55;;;;;;;;;;5097369;28;20140;-74
2022/06/16 03:14:02;;;;;;;8.10;4.35;;;;;;;;;;5075296;28;20049;-74
2022/06/16 03:16:28;;;;;;;8.63;4.20;;;;;;;;;;5092757;27;20058;-74
2022/06/16 03:18:55;;;;;;;8.55;4.25;;;;;;;;;;5068475;28;20821;-74
2022/06/16 03:21:22;;;;;;;8.05;4.13;;;;;;;;;;5086444;28;20048;-74
2022/06/16 03:23:48;;;;;;;7.30;4.13;;;;;;;;;;5087755;28;20080;-74
2022/06/16 03:26:15;;;;;;;8.55;4.25;;;;;;;;;;5064432;28;20057;-74
2022/06/16 03:28:41;;;;;;;11.95;4.43;;;;;;;;;;5086849;27;20056;-74
2022/06/16 03:31:07;;;;;;;8.75;4.72;;;;;;;;;;5094324;28;20052;-74
2022/06/16 03:33:34;;;;;;;8.90;4.82;;;;;;;;;;5093642;28;20055;-74
2022/06/16 03:36:00;;;;;;;10.02;4.53;;;;;;;;;;5095105;28;20091;-76
2022/06/16 03:40:53;;;;;;;11.23;4.80;;;;;;;;;;5090853;28;20049;-74
2022/06/16 03:43:19;;;;;;;8.20;4.40;;;;;;;;;;5081940;28;20087;-74
2022/06/16 03:45:46;;;;;;;9.65;4.97;;;;;;;;;;5080983;28;20048;-74
2022/06/16 03:48:12;;;;;;;7.50;4.47;;;;;;;;;;5083685;28;20643;-74
2022/06/16 03:50:39;;;;;;;10.82;4.93;;;;;;;;;;5079601;28;20054;-74
2022/06/16 03:53:05;;;;;;;7.85;4.00;;;;;;;;;;5080730;28;20108;-74
2022/06/16 03:55:32;;;;;;;9.68;4.38;;;;;;;;;;5064884;28;20056;-74
2022/06/16 03:57:58;;;;;;;10.13;4.68;;;;;;;;;;5090100;28;20147;-74
2022/06/16 04:00:25;;;;;;;7.40;4.05;;;;;;;;;;5087978;28;20049;-74
2022/06/16 04:03:59;;;;;;;7.97;4.70;;;;;;;;;;5082526;28;20049;-74
2022/06/16 04:05:38;;;;;;;9.98;5.32;;;;;;;;;;5100991;28;20048;-74
2022/06/16 04:08:05;;;;;;;8.32;4.47;;;;;;;;;;5086827;28;20613;-74
2022/06/16 04:10:31;;;;;;;14.10;4.57;;;;;;;;;;5092121;28;20099;-74
2022/06/16 04:12:58;;;;;;;11.25;4.70;;;;;;;;;;5086840;28;20513;-74
2022/06/16 04:15:24;;;;;;;10.02;4.75;;;;;;;;;;5088469;28;20054;-74
2022/06/16 04:17:50;;;;;;;11.70;5.35;;;;;;;;;;5106230;27;20062;-74
2022/06/16 04:20:17;;;;;;;10.73;4.82;;;;;;;;;;5096037;28;20055;-74
2022/06/16 04:22:43;;;;;;;7.45;4.90;;;;;;;;;;5095074;28;20053;-74
2022/06/16 04:25:14;;;;;;;8.73;4.75;;;;;;;;;;5092864;28;20056;-74
2022/06/16 04:27:42;;;;;;;8.32;4.45;;;;;;;;;;5085111;28;20148;-74
2022/06/16 04:30:09;;;;;;;10.68;5.05;;;;;;;;;;5093915;28;20449;-74
2022/06/16 04:32:35;;;;;;;8.20;4.72;;;;;;;;;;5093402;28;20048;-74
2022/06/16 04:35:02;;;;;;;12.60;5.00;;;;;;;;;;5091310;28;20052;-74
2022/06/16 04:37:29;;;;;;;8.68;5.07;;;;;;;;;;5102189;28;20090;-74
2022/06/16 04:39:55;;;;;;;9.02;5.05;;;;;;;;;;5084715;28;20126;-74
2022/06/16 04:42:22;;;;;;;10.52;5.55;;;;;;;;;;5093906;28;20052;-74
2022/06/16 04:44:48;;;;;;;8.45;4.68;;;;;;;;;;5071800;28;20052;-74
2022/06/16 04:47:14;;;;;;;9.15;4.80;;;;;;;;;;5089638;28;20533;-74
2022/06/16 04:49:41;;;;;;;9.27;4.85;;;;;;;;;;5104915;28;20055;-75
2022/06/16 04:52:07;;;;;;;8.88;5.00;;;;;;;;;;5091657;28;20084;-74
2022/06/16 04:54:34;;;;;;;9.05;5.15;;;;;;;;;;5096532;27;20060;-73
2022/06/16 04:57:01;;;;;;;10.65;5.15;;;;;;;;;;5091523;28;20083;-74
2022/06/16 04:59:27;;;;;;;10.18;4.95;;;;;;;;;;5103890;27;20143;-75
2022/06/16 05:01:54;;;;;;;9.35;5.20;;;;;;;;;;5104547;28;20602;-74
2022/06/16 05:04:20;;;;;;;9.15;4.82;;;;;;;;;;5103347;27;20107;-74
2022/06/16 05:06:46;;;;;;;9.05;4.90;;;;;;;;;;5103393;27;20058;-74
2022/06/16 05:09:13;;;;;;;13.70;5.28;;;;;;;;;;5085801;28;20062;-74
2022/06/16 05:11:39;;;;;;;9.40;5.20;;;;;;;;;;5087424;28;20063;-74
2022/06/16 05:14:05;;;;;;;9.35;4.85;;;;;;;;;;5098497;28;20559;-74
2022/06/16 05:16:32;;;;;;;10.15;5.32;;;;;;;;;;5102162;27;20173;-73
2022/06/16 05:18:58;;;;;;;12.52;5.25;;;;;;;;;;5095457;28;20572;-73
2022/06/16 05:21:24;;;;;;;12.38;5.22;;;;;;;;;;5104453;28;20465;-73
2022/06/16 05:23:51;;;;;;;8.63;5.10;;;;;;;;;;5082910;28;20068;-73
2022/06/16 05:26:18;;;;;;;8.90;4.70;;;;;;;;;;5090102;28;20135;-73
2022/06/16 05:28:44;;;;;;;9.02;5.03;;;;;;;;;;5084559;28;20511;-73
2022/06/16 05:31:12;;;;;;;8.60;4.88;;;;;;;;;;5092752;28;20060;-74
2022/06/16 05:33:38;;;;;;;10.93;5.30;;;;;;;;;;5074095;28;20059;-73
2022/06/16 05:36:08;;;;;;;8.95;5.20;;;;;;;;;;5082646;28;20058;-73
2022/06/16 05:38:35;;;;;;;9.25;5.03;;;;;;;;;;5089536;28;20049;-73
2022/06/16 05:41:03;;;;;;;10.98;4.70;;;;;;;;;;5084373;28;20499;-73
2022/06/16 05:43:30;;;;;;;10.15;4.90;;;;;;;;;;5096824;28;20058;-73
2022/06/16 05:45:56;;;;;;;12.85;5.13;;;;;;;;;;5084424;27;20048;-73
2022/06/16 05:48:23;;;;;;;10.93;4.60;;;;;;;;;;5074161;27;20056;-73
2022/06/16 05:50:49;;;;;;;11.50;4.50;;;;;;;;;;5087258;27;20052;-73
2022/06/16 05:53:15;;;;;;;7.93;4.78;;;;;;;;;;5068264;28;20052;-73
2022/06/16 05:55:42;;;;;;;11.32;4.22;;;;;;;;;;5092164;28;20893;-73
2022/06/16 05:58:08;;;;;;;7.72;4.07;;;;;;;;;;5092231;28;20078;-73
2022/06/16 06:00:34;;;;;;;9.68;4.00;;;;;;;;;;5083861;28;20127;-73
2022/06/16 06:03:01;;;;;;;7.13;3.50;;;;;;;;;;5091985;28;20507;-73
2022/06/16 06:05:28;;;;;;;9.32;4.07;;;;;;;;;;5090880;27;20127;-73
2022/06/16 06:16:25;;;;;;;7.03;3.63;;;;;;;;;;5097582;28;20458;-73
2022/06/16 06:18:59;;;;;;;7.32;4.10;;;;;;;;;;5090569;28;20056;-73
2022/06/16 06:24:11;;;;;;;8.25;3.70;;;;;;;;;;5092831;28;20154;-73
2022/06/16 06:26:38;;;;;;;6.90;4.20;;;;;;;;;;5086813;28;20079;-74
2022/06/16 06:29:04;;;;;;;7.85;3.50;;;;;;;;;;5081248;28;20052;-74
2022/06/16 06:31:31;;;;;;;8.52;3.83;;;;;;;;;;5089504;28;20052;-74
2022/06/16 06:33:57;;;;;;;9.60;3.50;;;;;;;;;;5092838;28;20048;-74
2022/06/16 06:36:23;;;;;;;7.82;3.70;;;;;;;;;;5086262;27;20522;-74
2022/06/16 06:38:50;;;;;;;7.47;3.55;;;;;;;;;;5087510;28;20151;-73
2022/06/16 06:41:17;;;;;;;8.20;3.67;;;;;;;;;;5096545;28;20046;-73
2022/06/16 06:43:43;;;;;;;7.18;3.40;;;;;;;;;;5098810;27;20059;-73
2022/06/16 06:46:10;;;;;;;7.43;3.03;;;;;;;;;;5101437;28;20066;-73
2022/06/16 06:48:37;;;;;;;7.80;3.47;;;;;;;;;;5098693;28;20052;-73
2022/06/16 06:51:03;;;;;;;7.78;3.53;;;;;;;;;;5092324;28;20769;-73
2022/06/16 06:53:29;;;;;;;6.57;2.95;;;;;;;;;;5089426;27;20052;-73
2022/06/16 06:55:56;;;;;;;6.22;2.97;;;;;;;;;;5102966;28;20256;-73
2022/06/16 06:58:23;;;;;;;6.50;3.05;;;;;;;;;;5083935;28;20123;-73
2022/06/16 07:00:53;;;;;;;7.75;2.90;;;;;;;;;;5086580;28;20062;-73
2022/06/16 07:03:20;;;;;;;8.20;3.40;;;;;;;;;;5089685;28;20098;-73
2022/06/16 07:05:47;;;;;;;6.72;2.97;;;;;;;;;;5097423;27;20052;-74
2022/06/16 07:08:13;;;;;;;6.55;2.90;;;;;;;;;;5092242;27;20052;-73
2022/06/16 07:10:40;;;;;;;11.27;2.83;;;;;;;;;;5088473;28;20057;-73
2022/06/16 07:13:12;;;;;;;5.35;2.70;;;;;;;;;;5081449;28;20051;-73
2022/06/16 07:15:38;;;;;;;8.70;2.55;;;;;;;;;;5100892;27;20063;-73
2022/06/16 07:18:06;;;;;;;7.68;2.20;;;;;;;;;;5068604;28;20056;-73
2022/06/16 07:20:32;;;;;;;6.70;2.45;;;;;;;;;;5098382;28;20048;-73
2022/06/16 07:22:59;;;;;;;8.68;2.40;;;;;;;;;;5102378;27;20091;-73
2022/06/16 07:25:26;;;;;;;6.95;2.55;;;;;;;;;;5102295;28;20131;-73
2022/06/16 07:27:53;;;;;;;5.20;2.65;;;;;;;;;;5074153;28;20849;-74
2022/06/16 07:30:20;;;;;;;8.68;2.85;;;;;;;;;;5088280;27;20058;-74
2022/06/16 07:32:47;;;;;;;6.50;2.38;;;;;;;;;;5100148;28;20518;-74
2022/06/16 07:35:18;;;;;;;8.32;2.78;;;;;;;;;;5099119;28;20048;-74
2022/06/16 07:37:44;;;;;;;5.85;2.67;;;;;;;;;;5087307;28;20054;-74
2022/06/16 07:40:11;;;;;;;7.57;2.53;;;;;;;;;;5081872;28;20048;-74
2022/06/16 07:42:38;;;;;;;6.55;2.40;;;;;;;;;;5074751;28;20052;-74
2022/06/16 07:45:04;;;;;;;6.20;2.25;;;;;;;;;;5090250;28;20529;-74
2022/06/16 07:47:31;;;;;;;4.72;2.30;;;;;;;;;;5076107;28;20418;-74
2022/06/16 07:49:57;;;;;;;7.47;2.40;;;;;;;;;;5095847;28;20057;-74
2022/06/16 07:52:23;;;;;;;7.85;1.98;;;;;;;;;;5086089;28;20470;-74
2022/06/16 07:54:50;;;;;;;5.68;2.28;;;;;;;;;;5084997;28;20048;-74
2022/06/16 07:57:18;;;;;;;7.57;1.85;;;;;;;;;;5076823;28;20080;-74
2022/06/16 07:59:53;;;;;;;5.72;2.28;;;;;;;;;;5103238;28;20055;-73
2022/06/16 08:02:20;;;;;;;5.40;2.10;;;;;;;;;;5098821;27;20058;-74
2022/06/16 08:04:46;;;;;;;5.78;2.10;;;;;;;;;;5089904;28;20059;-74
2022/06/16 08:07:13;;;;;;;5.15;1.73;;;;;;;;;;5077241;28;20052;-74
2022/06/16 08:09:39;;;;;;;4.43;1.95;;;;;;;;;;5097307;28;20058;-74
2022/06/16 08:12:10;;;;;;;5.57;2.05;;;;;;;;;;5092271;28;20057;-74
2022/06/16 08:14:42;;;;;;;4.95;2.03;;;;;;;;;;5094973;27;20056;-74
2022/06/16 08:17:11;;;;;;;4.30;1.88;;;;;;;;;;5094115;28;20056;-74
2022/06/16 08:19:38;;;;;;;5.35;1.95;;;;;;;;;;5092344;28;20048;-74
2022/06/16 08:22:04;;;;;;;3.85;1.52;;;;;;;;;;5100589;28;20048;-74
2022/06/16 08:24:31;;;;;;;5.60;2.00;;;;;;;;;;5103724;28;20512;-74
2022/06/16 08:26:59;;;;;;;5.55;1.90;;;;;;;;;;5098870;27;20129;-74
2022/06/16 08:29:26;;;;;;;4.72;1.83;;;;;;;;;;5098955;28;20051;-75
2022/06/16 08:31:52;;;;;;;8.07;2.10;;;;;;;;;;5091410;28;21738;-75
2022/06/16 08:34:19;;;;;;;6.00;1.85;;;;;;;;;;5091444;28;20495;-75
2022/06/16 08:36:45;;;;;;;4.22;1.80;;;;;;;;;;5089853;28;20063;-75
2022/06/16 08:39:12;;;;;;;4.65;1.73;;;;;;;;;;5076190;28;20862;-75
2022/06/16 08:41:53;;;;;;;4.10;1.95;;;;;;;;;;5103012;28;20058;-75
2022/06/16 08:44:26;;;;;;;6.35;2.40;;;;;;;;;;5097608;27;20056;-75
2022/06/16 08:47:04;;;;;;;4.10;1.90;;;;;;;;;;5090959;28;20079;-75
2022/06/16 08:49:54;;;;;;;6.38;2.00;;;;;;;;;;5100409;28;20490;-75
2022/06/16 08:52:28;;;;;;;4.80;1.88;;;;;;;;;;5066287;28;20165;-75
2022/06/16 08:55:04;;;;;;;8.32;2.22;;;;;;;;;;5104515;27;20835;-75
2022/06/16 08:57:45;;;;;;;6.75;2.05;;;;;;;;;;5104485;27;20054;-75
2022/06/16 09:00:15;;;;;;;5.28;2.05;;;;;;;;;;5103055;27;20052;-75
2022/06/16 09:02:46;;;;;;;6.00;2.13;;;;;;;;;;5100283;27;20059;-75
2022/06/16 09:05:19;;;;;;;5.03;2.00;;;;;;;;;;5106325;28;20105;-75
2022/06/16 09:07:52;;;;;;;4.63;1.90;;;;;;;;;;5085885;28;20054;-75
2022/06/16 09:10:23;;;;;;;5.32;2.10;;;;;;;;;;5090568;28;20048;-75
2022/06/16 09:12:59;;;;;;;5.13;2.00;;;;;;;;;;5091112;28;20158;-75
2022/06/16 09:15:25;;;;;;;4.32;1.85;;;;;;;;;;5094023;28;20422;-75
2022/06/16 09:18:04;;;;;;;5.93;2.20;;;;;;;;;;5100484;27;20597;-74
2022/06/16 09:20:54;;;;;;;5.10;2.05;;;;;;;;;;5100489;27;20048;-75
2022/06/16 09:23:27;;;;;;;3.97;2.10;;;;;;;;;;5042927;28;20082;-73
2022/06/16 09:25:58;;;;;;;4.75;2.30;;;;;;;;;;5067779;28;20157;-74
2022/06/16 09:28:31;;;;;;;5.65;2.40;;;;;;;;;;5100252;28;20048;-74
2022/06/16 09:31:00;;;;;;;5.25;2.58;;;;;;;;;;5104681;27;20062;-75
2022/06/16 09:33:34;;;;;;;5.78;2.40;;;;;;;;;;5094872;28;20048;-74
2022/06/16 09:36:23;;;;;;;5.85;2.38;;;;;;;;;;5098070;28;20052;-74
2022/06/16 09:38:49;;;;;;;7.43;2.38;;;;;;;;;;5074653;28;20052;-74
2022/06/16 09:44:07;;;;;;;5.93;2.05;;;;;;;;;;5096292;28;20048;-75
2022/06/16 09:46:40;;;;;;;6.75;2.13;;;;;;;;;;5088928;28;20056;-75
2022/06/16 09:49:06;;;;;;;4.10;2.00;;;;;;;;;;5104594;27;20052;-75
2022/06/16 09:51:54;;;;;;;5.13;2.05;;;;;;;;;;5096310;27;20487;-75
2022/06/16 09:54:22;;;;;;;9.45;2.10;;;;;;;;;;5086080;28;20095;-76
2022/06/16 09:56:51;;;;;;;8.32;2.50;;;;;;;;;;5087960;27;20519;-75
2022/06/16 09:59:24;;;;;;;5.28;2.08;;;;;;;;;;5095786;27;20474;-75
2022/06/16 10:02:09;;;;;;;8.75;2.40;;;;;;;;;;5075055;28;20060;-75
2022/06/16 10:04:36;;;;;;;6.15;2.40;;;;;;;;;;5098366;28;20594;-76
2022/06/16 10:07:13;;;;;;;4.88;2.10;;;;;;;;;;5074311;28;20067;-76
2022/06/16 10:09:48;;;;;;;7.97;2.30;;;;;;;;;;5085101;28;20135;-75
2022/06/16 10:12:19;;;;;;;5.10;2.10;;;;;;;;;;5076276;28;20051;-76
2022/06/16 10:15:04;;;;;;;5.20;2.13;;;;;;;;;;5071996;28;20085;-75
2022/06/16 10:17:34;;;;;;;5.72;2.15;;;;;;;;;;5083094;27;20052;-73
2022/06/16 10:20:00;;;;;;;6.15;2.10;;;;;;;;;;5091123;28;20095;-73
2022/06/16 10:22:28;;;;;;;4.47;2.20;;;;;;;;;;5084474;28;20059;-74
2022/06/16 10:24:58;;;;;;;5.57;2.20;;;;;;;;;;5082769;28;20052;-74
2022/06/16 10:27:28;;;;;;;5.95;2.10;;;;;;;;;;5088425;27;20048;-73
2022/06/16 10:30:01;;;;;;;7.63;2.30;;;;;;;;;;5083122;28;20055;-74
2022/06/16 10:32:44;;;;;;;4.78;2.10;;;;;;;;;;5094345;28;20378;-75
2022/06/16 10:35:18;;;;;;;6.20;2.20;;;;;;;;;;5095006;28;22346;-74
2022/06/16 10:37:46;;;;;;;7.00;2.40;;;;;;;;;;5086028;27;20620;-74
2022/06/16 10:40:14;;;;;;;5.18;2.20;;;;;;;;;;5101278;27;20048;-73
2022/06/16 10:42:46;;;;;;;6.85;2.30;;;;;;;;;;5100962;28;20139;-74
2022/06/16 10:45:21;;;;;;;5.50;2.15;;;;;;;;;;5086756;28;20136;-74
2022/06/16 10:47:47;;;;;;;5.25;2.20;;;;;;;;;;5103180;28;20058;-74
2022/06/16 10:50:18;;;;;;;6.07;2.38;;;;;;;;;;5100751;28;20144;-74
2022/06/16 10:52:48;;;;;;;6.75;1.92;;;;;;;;;;5104583;28;20082;-75
2022/06/16 10:55:22;;;;;;;6.70;2.42;;;;;;;;;;5103560;28;20138;-74
2022/06/16 10:57:57;;;;;;;5.57;2.08;;;;;;;;;;5086300;28;20521;-74
2022/06/16 11:00:25;;;;;;;5.70;2.30;;;;;;;;;;5095404;28;20052;-75
2022/06/16 11:03:05;;;;;;;5.07;2.10;;;;;;;;;;5093156;28;20507;-74
2022/06/16 11:05:34;;;;;;;9.23;2.22;;;;;;;;;;5082948;28;20623;-75
2022/06/16 11:08:04;;;;;;;6.35;2.20;;;;;;;;;;5084109;28;20049;-75
2022/06/16 11:10:56;;;;;;;6.50;2.30;;;;;;;;;;5076207;27;20122;-75
2022/06/16 11:13:35;;;;;;;4.85;2.20;;;;;;;;;;5081776;27;20531;-74
2022/06/16 11:16:11;;;;;;;6.80;2.40;;;;;;;;;;5081998;28;20060;-74
2022/06/16 11:18:38;;;;;;;6.13;2.30;;;;;;;;;;5074326;28;20090;-74
2022/06/16 11:21:15;;;;;;;7.88;2.80;;;;;;;;;;5078215;28;20059;-74
2022/06/16 11:23:44;;;;;;;5.60;2.42;;;;;;;;;;5066485;28;20143;-75
2022/06/16 11:26:16;;;;;;;7.97;2.45;;;;;;;;;;5082476;28;20048;-74
2022/06/16 11:28:44;;;;;;;9.40;2.30;;;;;;;;;;5092526;28;20056;-74
2022/06/16 11:31:15;;;;;;;7.13;2.20;;;;;;;;;;5083939;28;20052;-74
2022/06/16 11:34:07;;;;;;;6.82;2.15;;;;;;;;;;5087237;28;20688;-74
2022/06/16 11:36:43;;;;;;;5.78;2.17;;;;;;;;;;5089179;27;20080;-74
2022/06/16 11:39:28;;;;;;;6.85;2.70;;;;;;;;;;5091401;28;20056;-74
2022/06/16 11:41:55;;;;;;;4.38;2.10;;;;;;;;;;5090962;28;20052;-74
2022/06/16 11:44:40;;;;;;;6.45;2.40;;;;;;;;;;5078666;28;20671;-74
2022/06/16 11:47:12;;;;;;;6.95;2.30;;;;;;;;;;5090698;27;20049;-74
2022/06/16 11:49:47;;;;;;;5.80;2.40;;;;;;;;;;5081965;28;20048;-74
2022/06/16 11:52:16;;;;;;;4.95;2.17;;;;;;;;;;5090486;27;20151;-74
2022/06/16 11:54:42;;;;;;;6.22;2.35;;;;;;;;;;5092803;28;20145;-74
2022/06/16 11:57:12;;;;;;;5.38;2.08;;;;;;;;;;5087787;27;20530;-74
2022/06/16 11:59:54;;;;;;;7.20;2.47;;;;;;;;;;5077458;27;21067;-74
2022/06/16 12:02:20;;;;;;;8.20;2.92;;;;;;;;;;5079364;28;20059;-73
2022/06/16 12:04:53;;;;;;;6.07;2.30;;;;;;;;;;5089283;28;20075;-74
2022/06/16 12:07:36;;;;;;;8.82;2.10;;;;;;;;;;5097746;28;20139;-73
2022/06/16 12:10:02;;;;;;;5.75;2.10;;;;;;;;;;5084328;28;20048;-73
2022/06/16 12:12:28;;;;;;;6.57;2.30;;;;;;;;;;5087288;28;20087;-73
2022/06/16 12:15:05;;;;;;;5.85;2.20;;;;;;;;;;5073057;28;20050;-73
2022/06/16 12:17:37;;;;;;;5.95;2.60;;;;;;;;;;5092528;27;20143;-73
2022/06/16 12:20:22;;;;;;;6.07;2.30;;;;;;;;;;5092065;28;20048;-73
2022/06/16 12:23:08;;;;;;;5.45;2.20;;;;;;;;;;5094645;28;20143;-73
2022/06/16 12:25:40;;;;;;;8.43;2.10;;;;;;;;;;5086038;28;20052;-72
2022/06/16 12:28:27;;;;;;;5.13;2.15;;;;;;;;;;5087381;28;20430;-73
2022/06/16 12:30:59;;;;;;;4.43;2.05;;;;;;;;;;5092104;27;20565;-73
2022/06/16 12:33:35;;;;;;;4.32;1.70;;;;;;;;;;5090117;28;20049;-73
2022/06/16 12:36:08;;;;;;;7.25;2.60;;;;;;;;;;5098152;28;20504;-73
2022/06/16 12:38:38;;;;;;;6.93;2.40;;;;;;;;;;5082117;28;20057;-74
2022/06/16 12:41:09;;;;;;;8.00;2.60;;;;;;;;;;5098026;27;20048;-73
2022/06/16 12:43:37;;;;;;;5.35;2.10;;;;;;;;;;5094288;28;20048;-74
2022/06/16 12:46:05;;;;;;;4.53;2.00;;;;;;;;;;5087110;28;20119;-74
2022/06/16 12:48:43;;;;;;;4.10;2.08;;;;;;;;;;5096420;28;20143;-74
2022/06/16 12:51:12;;;;;;;5.18;2.30;;;;;;;;;;5074557;28;20059;-73
2022/06/16 12:53:53;;;;;;;5.87;2.00;;;;;;;;;;5102003;27;20148;-73
2022/06/16 12:56:25;;;;;;;6.43;1.98;;;;;;;;;;5097588;27;20560;-73
2022/06/16 12:58:54;;;;;;;6.97;2.00;;;;;;;;;;5084405;28;20151;-73
2022/06/16 13:01:21;;;;;;;4.68;2.10;;;;;;;;;;5096392;27;20518;-73
2022/06/16 13:03:47;;;;;;;3.92;1.90;;;;;;;;;;5094131;28;20884;-73
2022/06/16 13:06:16;;;;;;;5.78;2.00;;;;;;;;;;5090317;27;20190;-74
2022/06/16 13:08:44;;;;;;;7.43;2.15;;;;;;;;;;5065666;28;20059;-74
2022/06/16 13:11:14;;;;;;;5.32;1.90;;;;;;;;;;5097103;28;20135;-74
2022/06/16 13:13:40;;;;;;;;;;;;;;;;;;5065973;28;20066;-74
2022/06/16 13:16:10;;;;;;;5.50;2.08;;;;;;;;;;5089309;28;47829;-74
2022/06/16 13:18:45;;;;;;;7.50;2.10;;;;;;;;;;5088551;27;20058;-74
2022/06/16 13:21:18;;;;;;;5.95;2.22;;;;;;;;;;5094787;28;20059;-73
2022/06/16 13:23:46;;;;;;;9.18;2.05;;;;;;;;;;5085012;28;20226;-74
2022/06/16 13:26:25;;;;;;;5.30;2.10;;;;;;;;;;5080260;28;20852;-74
2022/06/16 13:29:00;;;;;;;5.73;2.20;;;;;;;;;;5099181;28;20060;-74
2022/06/16 13:31:46;;;;;;;4.97;2.10;;;;;;;;;;5091469;28;20166;-74
2022/06/16 13:34:20;;;;;;;4.28;1.80;;;;;;;;;;5038212;28;20167;-74
2022/06/16 13:36:53;;;;;;;5.85;2.10;;;;;;;;;;5087680;28;20052;-74
2022/06/16 13:39:39;;;;;;;8.43;2.70;;;;;;;;;;5078832;27;20059;-74
2022/06/16 13:42:15;;;;;;;4.55;2.08;;;;;;;;;;5078945;28;20067;-74
2022/06/16 13:45:00;;;;;;;5.43;2.22;;;;;;;;;;5071348;28;20059;-73
2022/06/16 13:47:27;;;;;;;6.10;2.20;;;;;;;;;;5085285;28;20149;-73
2022/06/16 13:49:55;;;;;;;6.15;2.15;;;;;;;;;;5090736;27;20061;-74
2022/06/16 13:52:29;;;;;;;5.95;2.45;;;;;;;;;;5092052;28;20059;-73
2022/06/16 13:55:09;;;;;;;5.25;2.25;;;;;;;;;;5085452;27;20533;-74
2022/06/16 13:57:36;;;;;;;6.25;2.38;;;;;;;;;;5090833;28;20056;-74
2022/06/16 14:00:11;;;;;;;4.82;2.30;;;;;;;;;;5093379;27;20047;-73
2022/06/16 14:02:56;;;;;;;5.03;2.45;;;;;;;;;;5087196;28;20616;-74
2022/06/16 14:05:27;;;;;;;5.78;2.40;;;;;;;;;;5092611;28;20049;-73
2022/06/16 14:07:57;;;;;;;9.00;2.40;;;;;;;;;;5090865;28;20580;-74
2022/06/16 14:10:34;;;;;;;5.40;2.30;;;;;;;;;;5094049;28;20059;-73
2022/06/16 14:13:15;;;;;;;4.93;2.05;;;;;;;;;;5091765;28;20052;-74
2022/06/16 14:15:42;;;;;;;5.40;2.13;;;;;;;;;;5094946;27;20051;-73
2022/06/16 14:18:21;;;;;;;4.95;2.10;;;;;;;;;;5079514;28;20047;-73
2022/06/16 14:21:00;;;;;;;6.43;2.28;;;;;;;;;;5086856;28;20053;-74
2022/06/16 14:23:30;;;;;;;4.93;2.08;;;;;;;;;;5102601;28;20056;-73
2022/06/16 14:25:58;;;;;;;6.93;2.08;;;;;;;;;;5102440;28;20052;-73
2022/06/16 14:28:32;;;;;;;5.57;2.25;;;;;;;;;;5095776;27;20051;-74
2022/06/16 14:31:22;;;;;;;7.28;2.20;;;;;;;;;;5103955;28;20139;-73
2022/06/16 14:34:02;;;;;;;7.40;2.40;;;;;;;;;;5087992;27;20044;-73
2022/06/16 14:36:43;;;;;;;6.97;2.28;;;;;;;;;;5086767;28;21039;-73
2022/06/16 14:39:13;;;;;;;4.93;2.22;;;;;;;;;;5097624;28;20490;-74
2022/06/16 14:41:42;;;;;;;5.20;2.13;;;;;;;;;;5083944;28;20052;-73
2022/06/16 14:44:14;;;;;;;7.80;2.03;;;;;;;;;;5092878;28;20053;-73
2022/06/16 14:46:51;;;;;;;4.40;1.92;;;;;;;;;;5083298;28;20306;-74
2022/06/16 14:49:24;;;;;;;4.60;2.08;;;;;;;;;;5088074;27;20680;-74
2022/06/16 14:51:51;;;;;;;6.88;2.65;;;;;;;;;;5082241;28;20052;-74
2022/06/16 14:54:22;;;;;;;8.40;2.25;;;;;;;;;;5101635;27;20058;-74
2022/06/16 14:56:50;;;;;;;7.03;2.40;;;;;;;;;;5088847;27;20139;-73
2022/06/16 14:59:18;;;;;;;8.20;2.22;;;;;;;;;;5085513;28;20136;-74
2022/06/16 15:01:46;;;;;;;4.72;1.90;;;;;;;;;;5100756;27;20143;-74
2022/06/16 15:04:15;;;;;;;5.90;2.10;;;;;;;;;;5070790;28;20079;-74
2022/06/16 15:06:47;;;;;;;6.43;2.25;;;;;;;;;;5101636;27;20047;-75
2022/06/16 15:09:15;;;;;;;7.22;2.92;;;;;;;;;;5083236;28;20053;-74
2022/06/16 15:11:42;;;;;;;5.97;2.30;;;;;;;;;;5091861;27;20143;-74
2022/06/16 15:14:10;;;;;;;8.35;2.40;;;;;;;;;;5070374;28;20060;-73
2022/06/16 15:19:25;;;;;;;5.05;2.17;;;;;;;;;;5087609;28;20045;-74
2022/06/16 15:21:52;;;;;;;5.00;2.58;;;;;;;;;;5096368;28;20131;-74
2022/06/16 15:24:33;;;;;;;7.15;2.53;;;;;;;;;;5089582;28;20049;-73
2022/06/16 15:26:59;;;;;;;6.88;2.30;;;;;;;;;;5089842;28;20163;-73
2022/06/16 15:29:30;;;;;;;7.25;2.35;;;;;;;;;;5094262;27;20058;-74